createdAt,value
2022-12-24T00:01:04.871Z,78.30
2022-12-24T00:06:22.544Z,79.30
2022-12-24T00:09:04.271Z,77.00
2022-12-24T00:11:54.516Z,72.40
2022-12-24T00:14:27.028Z,78.50
2022-12-24T00:16:59.866Z,80.40
2022-12-24T00:19:32.607Z,86.20
2022-12-24T00:22:14.557Z,111.20
2022-12-24T00:24:57.351Z,82.80
2022-12-24T00:27:40.953Z,76.50
2022-12-24T00:30:18.418Z,66.10
2022-12-24T00:32:58.925Z,64.80
2022-12-24T00:35:41.702Z,63.50
2022-12-24T00:38:22.020Z,65.40
2022-12-24T00:41:04.142Z,68.20
2022-12-24T00:43:54.436Z,70.10
2022-12-24T00:46:41.442Z,67.60
2022-12-24T00:49:19.854Z,69.00
2022-12-24T00:54:54.956Z,59.10
2022-12-24T00:57:29.204Z,59.50
2022-12-24T01:00:08.142Z,57.30
2022-12-24T01:02:57.784Z,54.70
2022-12-24T01:05:44.847Z,49.40
2022-12-24T01:08:27.415Z,50.20
2022-12-24T01:11:03.301Z,51.40
2022-12-24T01:13:37.352Z,53.80
2022-12-24T01:16:31.599Z,49.40
2022-12-24T01:19:34.851Z,48.40
2022-12-24T01:22:08.377Z,49.70
2022-12-24T01:24:48.183Z,66.70
2022-12-24T01:27:29.730Z,80.00
2022-12-24T01:30:14.917Z,95.20
2022-12-24T01:32:51.733Z,87.80
2022-12-24T01:35:34.085Z,82.30
2022-12-24T01:38:31.115Z,90.80
2022-12-24T01:41:22.439Z,91.90
2022-12-24T01:44:15.276Z,90.50
2022-12-24T01:46:48.981Z,80.80
2022-12-24T01:49:24.072Z,78.60
2022-12-24T01:52:15.852Z,82.90
2022-12-24T01:54:58.319Z,78.10
2022-12-24T01:57:50.389Z,69.50
2022-12-24T02:00:37.973Z,58.40
2022-12-24T02:03:15.102Z,54.30
2022-12-24T02:06:07.614Z,50.80
2022-12-24T02:08:43.237Z,47.40
2022-12-24T02:11:25.047Z,43.80
2022-12-24T02:14:03.471Z,47.50
2022-12-24T02:17:01.338Z,46.30
2022-12-24T02:20:08.499Z,46.60
2022-12-24T02:23:21.934Z,47.70
2022-12-24T02:26:24.256Z,52.40
2022-12-24T02:29:26.422Z,56.80
2022-12-24T02:32:13.093Z,50.60
2022-12-24T02:34:57.721Z,60.10
2022-12-24T02:37:43.548Z,64.00
2022-12-24T02:40:52.503Z,59.90
2022-12-24T02:43:30.735Z,57.00
2022-12-24T02:46:27.532Z,56.20
2022-12-24T02:49:04.391Z,55.70
2022-12-24T02:51:40.860Z,52.40
2022-12-24T02:54:18.266Z,52.50
2022-12-24T02:57:14.611Z,48.90
2022-12-24T03:00:01.923Z,50.20
2022-12-24T03:03:15.083Z,51.00
2022-12-24T03:06:11.759Z,47.60
2022-12-24T03:09:02.793Z,49.50
2022-12-24T03:11:33.502Z,50.50
2022-12-24T03:14:04.004Z,48.40
2022-12-24T03:16:33.797Z,49.10
2022-12-24T03:19:04.077Z,49.30
2022-12-24T03:21:38.490Z,46.30
2022-12-24T03:24:10.337Z,45.50
2022-12-24T03:26:56.212Z,45.30
2022-12-24T03:29:53.824Z,43.90
2022-12-24T03:32:31.752Z,44.80
2022-12-24T03:35:16.636Z,43.00
2022-12-24T03:38:10.382Z,41.50
2022-12-24T03:40:54.544Z,42.90
2022-12-24T03:43:27.916Z,41.50
2022-12-24T03:46:13.392Z,41.80
2022-12-24T03:49:01.032Z,42.80
2022-12-24T03:51:33.739Z,41.30
2022-12-24T03:54:10.305Z,39.80
2022-12-24T03:56:50.569Z,41.50
2022-12-24T03:59:22.163Z,41.90
2022-12-24T04:01:54.630Z,39.80
2022-12-24T04:04:27.485Z,43.50
2022-12-24T04:07:00.306Z,42.30
2022-12-24T04:09:32.349Z,43.40
2022-12-24T04:12:10.975Z,45.30
2022-12-24T04:14:50.446Z,46.50
2022-12-24T04:17:31.969Z,46.70
2022-12-24T04:20:07.198Z,47.50
2022-12-24T04:22:40.713Z,46.40
2022-12-24T04:25:16.560Z,45.30
2022-12-24T04:28:14.323Z,46.70
2022-12-24T04:31:18.285Z,44.80
2022-12-24T04:33:54.794Z,42.70
2022-12-24T04:36:29.126Z,40.90
2022-12-24T04:39:04.555Z,39.20
2022-12-24T04:41:39.191Z,38.70
2022-12-24T04:44:17.046Z,43.20
2022-12-24T04:46:54.174Z,42.20
2022-12-24T04:49:25.450Z,42.50
2022-12-24T04:51:55.694Z,42.40
2022-12-24T04:54:25.404Z,43.80
2022-12-24T04:56:58.633Z,43.30
2022-12-24T04:59:28.855Z,43.20
2022-12-24T05:02:00.438Z,46.80
2022-12-24T05:04:35.716Z,39.90
2022-12-24T05:07:07.834Z,39.30
2022-12-24T05:09:40.851Z,40.10
2022-12-24T05:12:10.677Z,42.90
2022-12-24T05:14:41.222Z,44.30
2022-12-24T05:17:13.499Z,45.90
2022-12-24T05:19:43.673Z,46.20
2022-12-24T05:22:31.639Z,48.70
2022-12-24T05:25:24.085Z,46.80
2022-12-24T05:30:24.620Z,46.20
2022-12-24T05:32:55.449Z,44.60
2022-12-24T05:35:31.496Z,44.30
2022-12-24T05:38:01.620Z,43.20
2022-12-24T05:40:36.529Z,40.50
2022-12-24T05:43:09.811Z,40.60
2022-12-24T05:45:46.589Z,42.70
2022-12-24T05:48:16.116Z,42.10
2022-12-24T05:50:45.449Z,42.70
2022-12-24T05:53:14.811Z,43.70
2022-12-24T05:55:44.383Z,40.20
2022-12-24T05:58:16.457Z,36.60
2022-12-24T06:02:04.586Z,35.10
2022-12-24T06:49:26.036Z,22.80
2022-12-24T06:52:03.288Z,26.90
2022-12-24T06:54:35.593Z,30.60
2022-12-24T06:57:08.159Z,22.70
2022-12-24T06:59:37.591Z,21.40
2022-12-24T07:02:07.769Z,23.20
2022-12-24T07:04:40.435Z,28.40
2022-12-24T07:07:10.427Z,30.00
2022-12-24T07:09:42.703Z,30.30
2022-12-24T07:12:12.738Z,29.10
2022-12-24T07:14:43.933Z,25.40
2022-12-24T07:17:13.893Z,21.20
2022-12-24T07:19:43.493Z,21.60
2022-12-24T07:22:15.779Z,21.60
2022-12-24T07:24:48.205Z,17.70
2022-12-24T07:27:18.234Z,19.50
2022-12-24T07:29:51.016Z,20.00
2022-12-24T07:32:21.523Z,19.00
2022-12-24T07:34:51.178Z,20.30
2022-12-24T07:37:20.877Z,20.20
2022-12-24T07:39:50.590Z,20.60
2022-12-24T07:42:20.308Z,22.20
2022-12-24T07:44:49.866Z,22.00
2022-12-24T07:47:20.041Z,23.70
2022-12-24T07:49:49.880Z,21.50
2022-12-24T07:52:19.597Z,23.40
2022-12-24T07:54:49.522Z,27.60
2022-12-24T07:57:19.358Z,22.60
2022-12-24T07:59:49.042Z,24.90
2022-12-24T08:02:19.195Z,23.90
2022-12-24T08:04:49.597Z,22.90
2022-12-24T08:07:25.385Z,22.40
2022-12-24T08:09:55.167Z,29.30
2022-12-24T08:12:24.821Z,25.10
2022-12-24T08:14:54.662Z,30.10
2022-12-24T08:17:30.178Z,25.80
2022-12-24T08:20:02.178Z,31.80
2022-12-24T08:22:31.986Z,31.00
2022-12-24T08:25:01.801Z,28.60
2022-12-24T08:27:34.292Z,27.90
2022-12-24T08:30:06.079Z,25.70
2022-12-24T08:32:36.291Z,25.80
2022-12-24T08:35:07.219Z,26.30
2022-12-24T08:37:37.262Z,30.00
2022-12-24T08:40:07.856Z,31.10
2022-12-24T08:42:38.094Z,31.00
2022-12-24T08:45:08.494Z,31.00
2022-12-24T08:47:39.724Z,30.20
2022-12-24T08:50:10.194Z,28.80
2022-12-24T08:52:40.167Z,33.50
2022-12-24T08:55:09.808Z,33.70
2022-12-24T08:57:39.693Z,32.70
2022-12-24T09:00:13.563Z,43.00
2022-12-24T09:02:43.412Z,46.50
2022-12-24T09:05:12.925Z,35.00
2022-12-24T09:07:42.247Z,30.20
2022-12-24T09:10:12.321Z,34.00
2022-12-24T09:12:43.512Z,31.70
2022-12-24T09:15:14.451Z,34.20
2022-12-24T09:17:50.504Z,36.50
2022-12-24T09:20:22.780Z,32.90
2022-12-24T09:22:52.223Z,32.10
2022-12-24T09:25:21.528Z,30.80
2022-12-24T09:27:53.851Z,31.30
2022-12-24T09:30:23.520Z,35.30
2022-12-24T09:32:58.740Z,32.80
2022-12-24T09:35:28.263Z,30.00
2022-12-24T09:38:03.718Z,31.40
2022-12-24T09:40:42.324Z,27.20
2022-12-24T09:43:22.078Z,29.30
2022-12-24T09:46:14.950Z,27.10
2022-12-24T09:48:56.291Z,27.80
2022-12-24T09:51:54.207Z,27.90
2022-12-24T09:54:35.126Z,28.40
2022-12-24T09:57:32.621Z,31.00
2022-12-24T10:00:03.802Z,31.40
2022-12-24T10:02:42.622Z,33.70
2022-12-24T10:05:27.204Z,31.60
2022-12-24T10:09:02.898Z,32.50
2022-12-24T10:11:45.294Z,29.00
2022-12-24T10:14:49.224Z,25.60
2022-12-24T10:17:47.422Z,27.90
2022-12-24T10:21:05.974Z,19.50
2022-12-24T10:23:53.789Z,22.60
2022-12-24T10:26:34.160Z,26.30
2022-12-24T10:29:21.057Z,22.90
2022-12-24T10:32:07.422Z,22.90
2022-12-24T10:34:48.748Z,21.40
2022-12-24T10:37:33.028Z,27.10
2022-12-24T10:40:05.739Z,20.90
2022-12-24T10:42:51.410Z,21.20
2022-12-24T10:45:28.289Z,26.00
2022-12-24T10:48:08.501Z,28.30
2022-12-24T10:50:55.007Z,22.70
2022-12-24T10:53:47.724Z,24.10
2022-12-24T10:56:20.227Z,25.70
2022-12-24T10:58:56.539Z,26.10
2022-12-24T11:01:48.601Z,25.80
2022-12-24T11:04:22.757Z,23.40
2022-12-24T11:07:05.647Z,23.70
2022-12-24T11:09:43.636Z,24.70
2022-12-24T11:13:27.362Z,27.30
2022-12-24T11:15:39.229Z,27.00
2022-12-24T11:18:17.807Z,21.50
2022-12-24T11:20:53.954Z,27.00
2022-12-24T11:23:27.311Z,25.60
2022-12-24T11:26:11.264Z,30.50
2022-12-24T11:33:56.646Z,29.20
2022-12-24T11:36:27.652Z,28.10
2022-12-24T11:38:59.106Z,28.60
2022-12-24T11:41:37.775Z,33.70
2022-12-24T11:44:10.549Z,30.30
2022-12-24T11:46:46.488Z,24.50
2022-12-24T11:49:30.281Z,28.70
2022-12-24T11:52:22.392Z,44.60
2022-12-24T11:58:14.228Z,44.50
2022-12-24T12:00:46.394Z,45.50
2022-12-24T12:03:29.968Z,32.10
2022-12-24T12:06:03.996Z,37.20
2022-12-24T12:08:36.145Z,37.20
2022-12-24T12:13:44.353Z,43.80
2022-12-24T12:16:26.178Z,49.40
2022-12-24T12:19:08.739Z,44.90
2022-12-24T12:21:48.088Z,33.70
2022-12-24T12:24:32.380Z,46.60
2022-12-24T12:27:23.994Z,34.80
2022-12-24T12:30:04.770Z,38.10
2022-12-24T12:32:57.328Z,38.40
2022-12-24T12:35:40.560Z,35.50
2022-12-24T12:38:22.386Z,35.00
2022-12-24T12:41:54.905Z,30.80
2022-12-24T12:44:54.104Z,33.50
2022-12-24T12:47:42.650Z,33.20
2022-12-24T12:50:20.527Z,30.10
2022-12-24T12:53:01.867Z,27.80
2022-12-24T12:56:20.826Z,28.40
2022-12-24T12:59:00.236Z,30.50
2022-12-24T13:01:33.122Z,33.70
2022-12-24T13:04:41.012Z,89.30
2022-12-24T13:07:25.006Z,105.80
2022-12-24T13:10:08.530Z,52.10
2022-12-24T13:12:44.441Z,35.20
2022-12-24T13:15:44.141Z,39.60
2022-12-24T13:18:40.274Z,47.60
2022-12-24T13:21:20.911Z,44.10
2022-12-24T13:23:50.686Z,53.70
2022-12-24T13:26:20.301Z,39.30
2022-12-24T13:28:55.782Z,38.00
2022-12-24T13:31:29.022Z,50.20
2022-12-24T13:34:01.344Z,51.30
2022-12-24T13:37:05.445Z,49.90
2022-12-24T13:40:06.327Z,49.80
2022-12-24T13:43:04.141Z,51.60
2022-12-24T13:45:39.921Z,43.40
2022-12-24T13:48:10.889Z,46.50
2022-12-24T13:50:53.075Z,40.20
2022-12-24T13:53:33.288Z,38.30
2022-12-24T13:56:27.249Z,39.10
2022-12-24T13:59:39.051Z,40.70
2022-12-24T14:02:25.197Z,41.40
2022-12-24T14:05:00.331Z,38.30
2022-12-24T14:07:31.145Z,36.60
2022-12-24T14:10:01.030Z,42.40
2022-12-24T14:12:51.058Z,43.20
2022-12-24T14:15:51.292Z,34.50
2022-12-24T14:18:25.337Z,33.40
2022-12-24T14:20:58.079Z,38.90
2022-12-24T14:23:54.157Z,35.70
2022-12-24T14:26:30.550Z,36.10
2022-12-24T14:29:13.172Z,37.20
2022-12-24T14:31:54.983Z,42.90
2022-12-24T14:34:24.800Z,38.40
2022-12-24T14:36:56.738Z,35.60
2022-12-24T14:42:57.121Z,37.50
2022-12-24T14:45:42.605Z,36.80
2022-12-24T14:48:34.601Z,34.90
2022-12-24T14:51:20.878Z,36.00
2022-12-24T14:54:21.027Z,36.70
2022-12-24T14:57:27.807Z,51.10
2022-12-24T15:00:00.642Z,63.40
2022-12-24T15:02:43.534Z,65.60
2022-12-24T15:05:39.590Z,86.00
2022-12-24T15:08:19.382Z,93.80
2022-12-24T15:10:54.657Z,83.10
2022-12-24T15:13:37.678Z,98.60
2022-12-24T15:16:30.204Z,90.90
2022-12-24T15:19:04.769Z,95.30
2022-12-24T15:21:41.381Z,125.80
2022-12-24T15:24:32.258Z,88.00
2022-12-24T15:27:17.646Z,113.20
2022-12-24T15:29:57.309Z,102.90
2022-12-24T15:32:26.391Z,99.60
2022-12-24T15:34:56.220Z,112.20
2022-12-24T15:37:30.151Z,106.30
2022-12-24T15:40:19.753Z,67.60
2022-12-24T15:42:48.999Z,98.30
2022-12-24T15:45:28.369Z,97.30
2022-12-24T15:48:06.934Z,98.30
2022-12-24T15:50:46.588Z,110.80
2022-12-24T15:53:22.720Z,109.10
2022-12-24T15:56:13.233Z,109.80
2022-12-24T15:58:45.657Z,107.80
2022-12-24T16:01:17.505Z,94.00
2022-12-24T16:06:23.507Z,107.70
2022-12-24T16:08:52.633Z,114.40
2022-12-24T16:11:24.111Z,98.20
2022-12-24T16:14:05.250Z,103.70
2022-12-24T16:16:37.803Z,104.30
2022-12-24T16:19:16.485Z,107.90
2022-12-24T16:21:46.230Z,106.00
2022-12-24T16:24:26.134Z,109.50
2022-12-24T16:26:56.818Z,114.80
2022-12-24T16:29:27.716Z,119.40
2022-12-24T16:31:59.321Z,112.80
2022-12-24T16:34:31.432Z,114.40
2022-12-24T16:39:33.737Z,108.20
2022-12-24T16:42:23.373Z,105.10
2022-12-24T16:44:55.937Z,97.40
2022-12-24T16:47:33.407Z,89.90
2022-12-24T16:50:08.582Z,131.90
2022-12-24T16:52:37.608Z,87.70
2022-12-24T16:55:07.014Z,97.30
2022-12-24T16:57:36.025Z,103.20
2022-12-24T17:00:09.750Z,98.60
2022-12-24T17:02:39.883Z,110.70
2022-12-24T17:05:10.100Z,107.30
2022-12-24T17:07:43.407Z,120.50
2022-12-24T17:10:14.741Z,129.40
2022-12-24T17:12:43.995Z,107.70
2022-12-24T17:15:13.405Z,112.20
2022-12-24T17:17:42.566Z,92.50
2022-12-24T17:20:12.259Z,115.10
2022-12-24T17:22:41.459Z,124.00
2022-12-24T17:25:13.875Z,120.30
2022-12-24T17:27:42.901Z,124.70
2022-12-24T17:30:12.643Z,103.10
2022-12-24T17:32:41.860Z,101.50
2022-12-24T17:35:10.894Z,95.30
2022-12-24T17:37:39.934Z,95.40
2022-12-24T17:40:10.263Z,94.20
2022-12-24T17:42:39.452Z,94.10
2022-12-24T17:45:09.181Z,93.80
2022-12-24T17:47:38.274Z,87.50
2022-12-24T17:50:11.730Z,72.20
2022-12-24T17:52:41.069Z,80.30
2022-12-24T17:55:11.101Z,82.20
2022-12-24T17:57:40.037Z,65.00
2022-12-24T18:00:10.201Z,62.90
2022-12-24T18:02:39.356Z,58.80
2022-12-24T18:05:08.722Z,57.60
2022-12-24T18:07:37.899Z,56.20
2022-12-24T18:10:08.413Z,56.20
2022-12-24T18:12:37.555Z,55.90
2022-12-24T18:15:07.515Z,55.70
2022-12-24T18:17:36.505Z,52.70
2022-12-24T18:20:07.635Z,55.80
2022-12-24T18:22:36.607Z,55.10
2022-12-24T18:25:06.762Z,57.20
2022-12-24T18:27:36.348Z,55.30
2022-12-24T18:30:09.089Z,56.80
2022-12-24T18:32:38.686Z,56.30
2022-12-24T18:35:08.480Z,63.00
2022-12-24T18:37:37.812Z,59.70
2022-12-24T18:40:09.364Z,55.50
2022-12-24T18:42:41.891Z,53.90
2022-12-24T18:45:11.613Z,55.60
2022-12-24T18:47:40.688Z,53.60
2022-12-24T18:50:09.970Z,55.00
2022-12-24T18:52:39.165Z,57.80
2022-12-24T18:55:09.348Z,50.60
2022-12-24T18:57:38.349Z,46.50
2022-12-24T19:00:09.079Z,46.10
2022-12-24T19:02:38.290Z,43.50
2022-12-24T19:05:08.419Z,44.50
2022-12-24T19:07:37.807Z,40.10
2022-12-24T19:10:09.003Z,41.90
2022-12-24T19:12:38.390Z,40.20
2022-12-24T19:15:07.771Z,42.20
2022-12-24T19:17:37.416Z,37.20
2022-12-24T19:20:08.216Z,38.60
2022-12-24T19:22:37.421Z,34.40
2022-12-24T19:25:07.537Z,34.70
2022-12-24T19:27:38.956Z,33.00
2022-12-24T19:30:09.023Z,30.60
2022-12-24T19:32:38.304Z,32.50
2022-12-24T19:35:08.181Z,30.90
2022-12-24T19:37:37.870Z,29.50
2022-12-24T19:40:09.069Z,31.00
2022-12-24T19:42:38.874Z,26.80
2022-12-24T19:45:22.778Z,27.60
2022-12-24T19:47:52.992Z,27.60
2022-12-24T19:50:22.280Z,26.80
2022-12-24T19:52:51.425Z,26.00
2022-12-24T19:55:20.692Z,26.10
2022-12-24T19:57:53.910Z,27.80
2022-12-24T20:00:23.029Z,29.10
2022-12-24T20:02:52.211Z,28.30
2022-12-24T20:05:21.386Z,32.60
2022-12-24T20:07:50.485Z,31.50
2022-12-24T20:10:20.807Z,27.30
2022-12-24T20:12:50.138Z,28.80
2022-12-24T20:15:19.271Z,32.00
2022-12-24T20:17:52.192Z,29.70
2022-12-24T20:20:21.326Z,32.70
2022-12-24T20:22:50.403Z,30.90
2022-12-24T20:25:19.905Z,35.30
2022-12-24T20:27:49.303Z,34.10
2022-12-24T20:30:18.496Z,34.70
2022-12-24T20:32:47.855Z,35.80
2022-12-24T20:35:17.100Z,35.80
2022-12-24T20:37:46.538Z,35.60
2022-12-24T20:40:16.497Z,37.50
2022-12-24T20:42:45.565Z,36.20
2022-12-24T20:45:15.081Z,39.10
2022-12-24T20:47:44.083Z,36.90
2022-12-24T20:50:13.254Z,36.80
2022-12-24T20:52:42.683Z,38.70
2022-12-24T20:55:11.879Z,39.00
2022-12-24T20:57:41.840Z,38.60
2022-12-24T21:00:11.922Z,36.90
2022-12-24T21:02:42.155Z,41.70
2022-12-24T21:05:12.768Z,41.40
2022-12-24T21:07:43.655Z,38.40
2022-12-24T21:10:15.426Z,40.50
2022-12-24T21:12:50.143Z,37.50
2022-12-24T21:15:22.154Z,39.90
2022-12-24T21:20:21.939Z,41.30
2022-12-24T21:22:54.622Z,46.70
2022-12-24T21:25:27.179Z,65.40
2022-12-24T21:27:56.336Z,47.40
2022-12-24T21:30:26.449Z,43.60
2022-12-24T21:32:55.608Z,42.30
2022-12-24T21:35:24.665Z,40.10
2022-12-24T21:37:53.654Z,38.50
2022-12-24T21:40:22.768Z,37.30
2022-12-24T21:42:51.813Z,39.40
2022-12-24T21:45:20.842Z,35.90
2022-12-24T21:47:52.555Z,36.50
2022-12-24T21:50:40.026Z,34.40
2022-12-24T21:53:27.439Z,36.30
2022-12-24T21:55:56.489Z,33.10
2022-12-24T21:58:25.600Z,42.30
2022-12-24T22:00:57.526Z,52.50
2022-12-24T22:03:27.703Z,51.60
2022-12-24T22:05:59.091Z,47.90
2022-12-24T22:08:46.496Z,40.50
2022-12-24T22:11:34.436Z,52.00
2022-12-24T22:14:03.900Z,41.30
2022-12-24T22:16:32.924Z,37.00
2022-12-24T22:19:02.030Z,35.00
2022-12-24T22:21:31.018Z,38.70
2022-12-24T22:24:00.101Z,38.80
2022-12-24T22:26:29.085Z,42.60
2022-12-24T22:28:58.140Z,47.50
2022-12-24T22:31:27.354Z,117.70
2022-12-24T22:33:56.635Z,67.60
2022-12-24T22:36:25.792Z,51.80
2022-12-24T22:38:54.852Z,45.80
2022-12-24T22:41:23.864Z,42.40
2022-12-24T22:43:52.973Z,37.40
2022-12-24T22:46:23.222Z,37.10
2022-12-24T22:48:53.002Z,35.90
2022-12-24T22:51:22.520Z,35.30
2022-12-24T22:53:51.690Z,35.40
2022-12-24T22:56:23.198Z,36.50
2022-12-24T22:58:56.688Z,36.10
2022-12-24T23:01:40.951Z,39.50
2022-12-24T23:04:10.926Z,38.30
2022-12-24T23:06:41.517Z,37.10
2022-12-24T23:09:15.802Z,38.30
2022-12-24T23:11:45.021Z,41.80
2022-12-24T23:14:38.939Z,44.60
2022-12-24T23:17:09.662Z,46.90
2022-12-24T23:19:39.213Z,49.60
2022-12-24T23:22:09.945Z,42.90
2022-12-24T23:24:39.549Z,42.00
2022-12-24T23:27:08.825Z,45.70
2022-12-24T23:29:37.862Z,40.50
2022-12-24T23:32:06.941Z,41.80
2022-12-24T23:34:35.989Z,45.60
2022-12-24T23:37:05.072Z,40.80
2022-12-24T23:39:34.092Z,46.00
2022-12-24T23:42:03.369Z,43.10
2022-12-24T23:44:32.987Z,44.60
2022-12-24T23:47:02.281Z,41.80
2022-12-24T23:49:31.437Z,47.80
2022-12-24T23:52:00.513Z,54.00
2022-12-24T23:54:29.859Z,50.50
2022-12-24T23:56:58.896Z,58.30
2022-12-24T23:59:28.251Z,51.00
